Time;durP1;ratioP1;P1;durP2;ratioP2;P2;SDS_P1;SDS_P2;PMS_P1;PMS_P2;Temp;Humidity;BMP_temperature;BMP_pressure;BME280_temperature;BME280_humidity;BME280_pressure;Samples;Min_cycle;Max_cycle;Signal;HPM_P1;HPM_P2
2023/08/09 00:25:44;;;;;;;;;;;;;;;;;;;;;
2023/08/09 00:43:30;;;;;;;2.40;2.20;;;;;;;14.21;66.18;100250.90;216710;1254;72863;-73
2023/08/09 00:54:53;;;;;;;;;;;;;;;;;;;;;
2023/08/09 01:00:26;;;;;;;2.70;2.20;;;;;;;14.26;66.27;100248.95;218075;1251;60549;-73
2023/08/09 01:12:33;;;;;;;2.10;1.80;;;;;;;14.26;66.50;100252.09;219483;1244;73856;-73
2023/08/09 01:18:36;;;;;;;3.40;2.40;;;;;;;14.20;66.48;100254.58;219602;1247;61573;-73
2023/08/09 01:23:42;;;;;;;2.20;2.00;;;;;;;14.17;66.82;100250.75;219957;1239;68292;-74
2023/08/09 01:29:11;;;;;;;2.30;2.10;;;;;;;14.14;66.89;100257.91;220263;1239;60924;-73
2023/08/09 01:40:17;;;;;;;2.50;2.20;;;;;;;14.08;67.34;100262.12;220325;1239;73263;-73
2023/08/09 01:51:57;;;;;;;2.60;2.30;;;;;;;14.06;67.49;100250.64;220419;1234;68151;-73
2023/08/09 01:57:20;;;;;;;2.60;2.20;;;;;;;14.08;67.59;100243.48;221647;1236;60908;-73
2023/08/09 02:02:31;;;;;;;2.60;2.40;;;;;;;14.11;67.70;100243.64;221578;1234;73442;-73
2023/08/09 02:07:34;;;;;;;3.60;2.50;;;;;;;14.12;67.66;100234.90;221680;1235;72481;-73
2023/08/09 02:12:40;;;;;;;;;;;;;;;;;;;;;
2023/08/09 02:18:01;;;;;;;;;;;;;;;;;;;;;
2023/08/09 02:23:02;;;;;;;2.40;2.00;;;;;;;14.21;68.03;100248.45;221618;1233;60381;-73
2023/08/09 02:28:01;;;;;;;2.90;2.20;;;;;;;14.21;68.00;100261.88;221574;1234;74104;-72
2023/08/09 02:33:06;;;;;;;2.50;2.30;;;;;;;14.21;68.03;100266.77;221754;1234;73842;-73
2023/08/09 02:37:59;;;;;;;2.90;2.10;;;;;;;14.20;68.14;100268.70;221528;1234;60436;-72
2023/08/09 02:43:00;;;;;;;2.30;2.10;;;;;;;14.18;68.43;100271.47;221782;1234;66121;-73
2023/08/09 02:48:09;;;;;;;;;;;;;;;;;;;;;
2023/08/09 02:53:17;;;;;;;2.00;1.80;;;;;;;14.13;68.64;100269.76;221793;1234;73703;-73
2023/08/09 02:58:31;;;;;;;;;;;;;;;14.06;68.68;100271.18;221773;1233;72995;-73
2023/08/09 03:03:36;;;;;;;2.20;2.00;;;;;;;13.99;69.02;100271.39;221825;1234;60993;-73
2023/08/09 03:08:35;;;;;;;2.20;2.00;;;;;;;13.92;69.27;100272.64;221649;1236;66737;-73
2023/08/09 03:13:45;;;;;;;2.80;2.30;;;;;;;13.84;69.33;100273.02;221618;1233;60545;-73
2023/08/09 03:18:41;;;;;;;2.30;2.10;;;;;;;13.78;69.56;100274.27;221670;1233;73473;-73
2023/08/09 03:23:37;;;;;;;3.00;2.40;;;;;;;13.69;69.64;100280.73;221669;1234;60433;-73
2023/08/09 03:28:36;;;;;;;3.60;2.10;;;;;;;13.64;69.88;100284.40;221612;1232;60542;-73
2023/08/09 03:33:32;;;;;;;2.20;2.00;;;;;;;13.60;70.05;100291.89;221657;1234;66914;-73
2023/08/09 03:38:24;;;;;;;2.60;2.40;;;;;;;13.56;70.16;100297.30;221564;1234;60404;-73
2023/08/09 03:43:16;;;;;;;3.70;2.20;;;;;;;13.50;70.12;100302.54;221627;1234;60449;-73
2023/08/09 03:48:08;;;;;;;4.40;2.50;;;;;;;13.43;70.28;100305.32;221688;1233;60433;-73
2023/08/09 03:53:00;;;;;;;2.60;2.40;;;;;;;13.33;70.39;100307.95;221534;1234;74783;-73
2023/08/09 03:57:52;;;;;;;4.50;2.40;;;;;;;13.26;70.57;100306.20;221636;1233;60401;-73
2023/08/09 04:02:45;;;;;;;3.40;2.50;;;;;;;13.20;70.60;100308.63;221595;1233;60556;-73
2023/08/09 04:07:37;;;;;;;3.10;2.10;;;;;;;13.13;70.91;100311.75;221684;1234;60451;-74
2023/08/09 04:12:29;;;;;;;3.40;2.20;;;;;;;13.10;71.02;100316.45;221444;1236;60965;-73
2023/08/09 04:17:20;;;;;;;2.40;2.20;;;;;;;13.21;71.24;100318.20;221822;1236;65663;-73
2023/08/09 04:22:13;;;;;;;2.40;2.20;;;;;;;13.69;70.83;100320.96;221582;1236;60456;-73
2023/08/09 04:27:05;;;;;;;3.10;2.40;;;;;;;13.86;70.73;100319.52;221652;1234;60439;-73
2023/08/09 04:31:56;;;;;;;3.30;1.90;;;;;;;14.04;70.63;100316.50;221868;1233;60439;-73
2023/08/09 04:36:48;;;;;;;3.40;2.30;;;;;;;14.08;70.56;100322.94;221628;1236;72884;-74
2023/08/09 04:41:40;;;;;;;3.30;2.70;;;;;;;14.14;70.54;100324.30;221613;1234;60452;-73
2023/08/09 04:46:32;;;;;;;2.60;2.40;;;;;;;14.13;70.39;100331.63;221777;1234;60443;-73
2023/08/09 04:51:23;;;;;;;2.40;2.00;;;;;;;14.08;70.50;100332.70;221853;1234;71080;-73
2023/08/09 04:56:15;;;;;;;5.60;1.90;;;;;;;14.02;70.61;100329.58;221637;1235;60478;-74
2023/08/09 05:01:06;;;;;;;3.30;2.60;;;;;;;13.99;70.79;100318.09;221682;1234;60486;-73
2023/08/09 05:05:58;;;;;;;2.10;1.90;;;;;;;13.96;70.86;100322.45;221831;1233;60551;-73
2023/08/09 07:15:49;;;;;;;;;;;;;;;;;;;;;
2023/08/09 09:01:26;;;;;;;;;;;;;;;;;;;;;
2023/08/09 09:25:26;;;;;;;;;;;;;;;;;;;;;
2023/08/09 09:30:33;;;;;;;4.50;1.60;;;;;;;21.88;47.38;100379.18;218065;1246;65422;-74
2023/08/09 09:35:35;;;;;;;1.80;1.70;;;;;;;22.13;47.75;100372.12;219577;1244;60562;-73
2023/08/09 09:40:32;;;;;;;3.70;2.00;;;;;;;22.49;47.75;100363.93;219562;1244;60520;-73
2023/08/09 09:45:29;;;;;;;1.70;1.60;;;;;;;22.89;46.92;100357.25;219655;1248;71250;-74
2023/08/09 09:50:28;;;;;;;2.10;1.80;;;;;;;23.18;45.91;100349.22;219624;1248;60966;-74
2023/08/09 09:55:25;;;;;;;2.00;1.70;;;;;;;23.61;45.16;100355.56;221061;1235;67942;-74
2023/08/09 10:00:20;;;;;;;1.50;1.40;;;;;;;25.33;42.30;100341.58;221538;1237;60464;-74
2023/08/09 10:05:19;;;;;;;2.50;1.80;;;;;;;25.65;42.25;100342.64;221727;1235;75103;-74
2023/08/09 10:10:12;;;;;;;3.60;1.70;;;;;;;27.38;39.78;100335.47;221722;1235;73523;-75
2023/08/09 10:15:08;;;;;;;2.10;1.50;;;;;;;30.20;36.91;100322.39;221597;1235;60488;-74
2023/08/09 10:20:10;;;;;;;3.50;1.80;;;;;;;31.04;36.00;100320.38;221613;1237;67038;-74
2023/08/09 10:25:07;;;;;;;2.80;1.70;;;;;;;32.97;33.25;100318.02;221438;1235;60549;-74
2023/08/09 10:30:45;;;;;;;2.00;1.90;;;;;;;34.11;32.13;100314.03;221692;1235;71812;-75
2023/08/09 10:35:54;;;;;;;1.60;1.50;;;;;;;34.73;29.10;100311.39;220504;1243;73311;-74
2023/08/09 10:41:12;;;;;;;1.70;1.30;;;;;;;34.88;29.90;100318.48;220492;1242;60449;-75
2023/08/09 10:53:02;;;;;;;2.00;1.90;;;;;;;34.45;28.64;100310.83;219331;1245;60482;-73
2023/08/09 10:58:29;;;;;;;1.50;1.40;;;;;;;33.41;29.85;100314.58;218966;1248;73416;-74
2023/08/09 11:03:22;;;;;;;1.90;1.70;;;;;;;32.12;31.53;100312.16;219355;1248;71109;-74
2023/08/09 11:14:37;;;;;;;2.80;1.70;;;;;;;27.28;35.45;100321.60;219676;1244;66512;-74
2023/08/09 11:19:33;;;;;;;3.40;1.60;;;;;;;25.92;37.08;100324.38;219745;1245;60499;-74
2023/08/09 11:24:29;;;;;;;4.00;1.80;;;;;;;24.81;38.02;100325.34;219949;1242;73557;-74
2023/08/09 11:29:24;;;;;;;3.30;2.90;;;;;;;24.06;39.53;100327.04;220642;1238;72624;-74
2023/08/09 11:34:18;;;;;;;5.50;2.00;;;;;;;24.03;40.15;100326.29;220785;1238;60307;-74
2023/08/09 11:39:13;;;;;;;1.90;1.70;;;;;;;24.42;39.77;100315.86;220703;1238;65849;-74
2023/08/09 12:17:50;;;;;;;3.70;2.40;;;;;;;21.88;45.42;100302.26;216048;1260;60645;-74
2023/08/09 12:22:55;;;;;;;6.90;2.90;;;;;;;21.73;46.02;100311.43;216181;1260;60546;-75
2023/08/09 12:34:19;;;;;;;;;;;;;;;;;;;;;
2023/08/09 12:52:26;;;;;;;5.50;2.20;;;;;;;22.58;45.18;100315.52;217333;1254;72529;-74
2023/08/09 12:57:22;;;;;;;3.00;2.30;;;;;;;22.27;45.00;100322.90;219099;1244;60697;-74
2023/08/09 13:09:48;;;;;;;2.20;1.90;;;;;;;21.60;46.54;100328.29;220649;1238;66199;-75
2023/08/09 13:28:06;;;;;;;2.70;2.40;;;;;;;20.42;50.18;100360.02;219364;1243;74081;-74
2023/08/09 13:39:58;;;;;;;;;;;;;;;;;;;;;
2023/08/09 13:50:30;;;;;;;4.80;3.10;;;;;;;19.04;57.85;100428.09;219916;1244;72830;-74
2023/08/09 14:01:25;;;;;;;5.30;3.90;;;;;;;18.58;59.86;100459.06;219649;1240;65915;-76
2023/08/09 14:07:04;;;;;;;4.90;4.20;;;;;;;18.51;60.71;100462.17;220479;1238;60619;-75
2023/08/09 14:18:05;;;;;;;5.90;3.80;;;;;;;18.38;62.34;100480.52;220397;1238;71674;-73
2023/08/09 14:23:00;;;;;;;6.80;4.00;;;;;;;18.33;62.64;100482.91;220455;1238;61058;-74
2023/08/09 14:28:03;;;;;;;4.70;3.10;;;;;;;18.29;62.83;100470.31;220381;1243;60431;-75
2023/08/09 14:53:15;;;;;;;;;;;;;;;;;;;;;
2023/08/09 14:58:18;;;;;;;3.00;2.50;;;;;;;18.42;63.09;100483.41;219924;1243;67078;-75
2023/08/09 15:23:27;;;;;;;;;;;;;;;;;;;;;
2023/08/09 15:28:21;;;;;;;3.30;2.60;;;;;;;17.79;64.11;100477.14;220044;1241;65668;-76
2023/08/09 15:33:13;;;;;;;4.40;2.30;;;;;;;17.67;64.49;100473.29;220664;1238;60389;-73
2023/08/09 15:38:06;;;;;;;3.80;2.50;;;;;;;17.55;64.63;100471.58;220695;1238;60401;-75
2023/08/09 16:55:56;;;;;;;5.80;5.20;;;;;;;16.82;67.47;100510.20;217599;1251;60447;-75
2023/08/09 17:27:39;;;;;;;21.00;15.00;;;;;;;16.43;69.13;100546.65;218382;1251;60615;-74
2023/08/09 17:32:31;;;;;;;16.30;13.70;;;;;;;16.38;69.38;100547.59;218188;1254;65310;-74
2023/08/09 17:37:23;;;;;;;12.00;8.30;;;;;;;16.38;69.57;100555.10;218664;1248;60466;-75
2023/08/09 17:42:15;;;;;;;6.10;5.40;;;;;;;16.34;69.65;100552.52;219276;1248;60479;-74
2023/08/09 17:47:10;;;;;;;5.10;3.80;;;;;;;16.29;69.74;100558.33;220051;1241;60548;-75
2023/08/09 17:52:01;;;;;;;3.90;3.50;;;;;;;16.20;69.63;100562.25;220099;1244;71823;-74
2023/08/09 17:56:53;;;;;;;3.70;3.30;;;;;;;16.11;69.79;100567.06;220653;1236;60440;-74
2023/08/09 18:01:53;;;;;;;4.80;3.80;;;;;;;16.03;70.12;100566.60;221608;1234;60536;-74
2023/08/09 18:06:55;;;;;;;3.70;3.40;;;;;;;15.92;70.27;100573.48;221647;1234;66700;-75
2023/08/09 18:11:52;;;;;;;5.20;3.70;;;;;;;15.86;70.77;100575.64;221470;1236;60547;-75
2023/08/09 18:16:50;;;;;;;4.00;3.50;;;;;;;15.85;70.88;100576.17;221341;1234;74147;-75
2023/08/09 18:21:43;;;;;;;3.70;3.30;;;;;;;15.83;71.02;100585.10;221673;1234;72613;-75
2023/08/09 18:26:45;;;;;;;3.80;3.20;;;;;;;15.77;71.14;100595.27;221678;1234;60395;-75
2023/08/09 18:31:37;;;;;;;4.10;3.30;;;;;;;15.75;71.31;100604.36;221616;1233;67093;-74
2023/08/09 21:45:28;;;;;;;4.90;4.40;;;;;;;13.90;76.01;100709.61;217606;1254;60498;-75
2023/08/09 21:51:44;;;;;;;5.30;4.10;;;;;;;13.90;76.19;100716.23;216256;1257;66829;-75
2023/08/09 22:44:50;;;;;;;;;;;;;;;;;;;;;
2023/08/09 23:36:38;;;;;;;11.80;8.30;;;;;;;13.55;77.48;100757.02;217437;1254;60605;-75
2023/08/09 23:42:10;;;;;;;10.20;8.80;;;;;;;13.49;77.45;100765.18;219718;1245;72739;-75
